Torm Alexandra — 9V2614 — position and weather

sailwx.info

Track history (hours):
 
Tides and Currents Weather Stations Pressure Air Temp Water Temp Dewpoint Dewpoint Depression Visibility Wind Speed Wind Dir Waves Ship Positions

Torm Alexandra

Last reported at 2017-Dec-11 13:45 UTC. Time now 2017-Dec-14 15:22 UTC.
Position N 51°27' E 002°37'.

Length 183 m; draft 10.8 m.

Type: Ship. MMSI: 564458000.

Date/timePositionNaut miles runAvg speedWind from/ knotsBaromVisibWave heightAir tempDewpointWater temp
2017-Dec-11 13:45N 51°27' E 002°37'1 4.2
2017-Dec-11 13:29N 51°27' E 002°36'2 1.7
2017-Dec-11 12:28N 51°25' E 002°35'0 0.0
2017-Dec-11 10:52N 51°25' E 002°35'0 0.0
2017-Dec-11 10:28N 51°25' E 002°35'0 0.0
2017-Dec-11 09:52N 51°25' E 002°35'0 0.0
2017-Dec-11 09:28N 51°25' E 002°35'0 0.0
2017-Dec-11 05:34N 51°25' E 002°35'0 0.1
2017-Dec-11 05:28N 51°25' E 002°35'0 0.1
2017-Dec-11 04:58N 51°25' E 002°35'0 0.1
2017-Dec-11 04:28N 51°25' E 002°36'0 0.0
2017-Dec-11 03:55N 51°25' E 002°36'0 0.0
2017-Dec-11 03:22N 51°25' E 002°36'0 0.0
2017-Dec-11 02:55N 51°25' E 002°36'0 0.0
2017-Dec-11 02:13N 51°25' E 002°36'0 0.0
2017-Dec-10 23:58N 51°25' E 002°36'0 0.1
2017-Dec-10 23:07N 51°25' E 002°36'0 0.1
2017-Dec-10 22:58N 51°25' E 002°36'0 0.2
2017-Dec-10 22:25N 51°25' E 002°36'0 0.1
2017-Dec-10 21:58N 51°25' E 002°36'0 0.1
2017-Dec-10 21:28N 51°25' E 002°36'0 0.0
2017-Dec-10 20:58N 51°25' E 002°36'0 0.0
2017-Dec-10 20:28N 51°25' E 002°36'0 0.0
2017-Dec-10 19:58N 51°25' E 002°36'0 0.0
2017-Dec-10 19:28N 51°25' E 002°36'0 0.0
2017-Dec-10 18:58N 51°25' E 002°36'0 0.0
2017-Dec-10 18:25N 51°25' E 002°36'0 0.0
2017-Dec-10 17:58N 51°25' E 002°36'0 0.0
2017-Dec-10 17:28N 51°25' E 002°36'0 0.0
2017-Dec-10 16:58N 51°25' E 002°36'0 0.0
2017-Dec-10 16:28N 51°25' E 002°36'0 0.0
2017-Dec-10 15:58N 51°25' E 002°36'0 0.0
2017-Dec-10 15:28N 51°25' E 002°36'0 0.0
2017-Dec-10 14:55N 51°25' E 002°36'0 0.0
2017-Dec-10 14:28N 51°25' E 002°36'0 0.0
2017-Dec-10 13:55N 51°25' E 002°36'0 0.0
2017-Dec-10 13:25N 51°25' E 002°36'0 0.0
2017-Dec-10 12:58N 51°25' E 002°36'0 0.0
2017-Dec-10 12:28N 51°25' E 002°36'0 0.1
2017-Dec-10 11:58N 51°25' E 002°36'0 0.4
2017-Dec-10 11:28N 51°25' E 002°36'0 0.1
2017-Dec-10 10:49N 51°25' E 002°35'0 0.0
2017-Dec-10 10:28N 51°25' E 002°35'0 0.1
2017-Dec-10 09:58N 51°25' E 002°35'0 0.0
2017-Dec-10 09:28N 51°25' E 002°35'0 0.1
2017-Dec-10 08:58N 51°25' E 002°36'0 0.1
2017-Dec-10 08:25N 51°25' E 002°36'0 0.1
2017-Dec-10 07:58N 51°25' E 002°36'0 0.1
2017-Dec-10 07:28N 51°25' E 002°36'0 0.0
2017-Dec-10 06:58N 51°25' E 002°36'0 0.0
2017-Dec-10 06:25N 51°25' E 002°36'0 0.0
2017-Dec-10 05:58N 51°25' E 002°36'0 0.0
2017-Dec-10 05:28N 51°25' E 002°36'0 0.0
2017-Dec-10 04:58N 51°25' E 002°36'0 0.0
2017-Dec-10 04:28N 51°25' E 002°36'0 0.0
2017-Dec-10 03:58N 51°25' E 002°36'0 0.4
2017-Dec-10 03:28N 51°25' E 002°36'0 0.1
2017-Dec-10 02:55N 51°25' E 002°36'0 0.0
2017-Dec-10 02:28N 51°25' E 002°36'0 0.1
2017-Dec-10 01:58N 51°25' E 002°36'0 0.1
2017-Dec-10 01:28N 51°25' E 002°35'0 0.1
2017-Dec-10 00:46N 51°25' E 002°36'7 5.2
2017-Dec-09 23:30N 51°32' E 002°36'  
2017-Dec-07 12:36N 57°48' E 010°22'1 7.3
2017-Dec-07 12:27N 57°48' E 010°24'4 7.8
2017-Dec-07 12:00N 57°48' E 010°30'4 7.2
2017-Dec-07 11:30N 57°49' E 010°37'4 7.5
2017-Dec-07 11:01N 57°49' E 010°44'5 9.8
2017-Dec-07 10:30N 57°44' E 010°48'5 7.1
2017-Dec-07 09:51N 57°40' E 010°53'410.6
2017-Dec-07 09:30N 57°39' E 010°59'510.5
2017-Dec-07 09:00N 57°37' E 011°08'510.8
2017-Dec-07 08:31N 57°33' E 011°16'510.9
2017-Dec-07 08:01N 57°30' E 011°23'510.8
2017-Dec-07 07:31N 57°25' E 011°28'611.3
2017-Dec-07 07:01N 57°20' E 011°32'611.1
2017-Dec-07 06:31N 57°14' E 011°36'611.3
2017-Dec-07 06:01N 57°09' E 011°39'611.5
2017-Dec-07 05:28N 57°03' E 011°43'5110.8
2017-Dec-07 00:42N 56°13' E 011°20'311.3
2017-Dec-07 00:27N 56°11' E 011°17'711.3
2017-Dec-06 23:52N 56°06' E 011°10'  
2017-Dec-04 09:45N 59°38' E 023°17'311.2
2017-Dec-04 09:29N 59°39' E 023°23'711.3
2017-Dec-04 08:53N 59°40' E 023°36'411.3
2017-Dec-04 08:31N 59°41' E 023°44'611.3
2017-Dec-04 08:01N 59°43' E 023°55'611.3
2017-Dec-04 07:31N 59°44' E 024°05'711.3
2017-Dec-04 06:56N 59°46' E 024°18'511.2
2017-Dec-04 06:30N 59°47' E 024°27'611.3
2017-Dec-04 06:01N 59°49' E 024°38'611.8
2017-Dec-04 05:31N 59°50' E 024°49'611.6
2017-Dec-04 05:00N 59°51' E 025°01'611.5
2017-Dec-04 04:31N 59°52' E 025°12'611.6
2017-Dec-04 04:00N 59°53' E 025°24'611.6
2017-Dec-04 03:29N 59°54' E 025°36'1911.3
2017-Dec-04 01:49N 59°59' E 026°12'311.3
2017-Dec-04 01:30N 59°60' E 026°19'611.1
2017-Dec-04 01:00N 60°01' E 026°29'510.5
2017-Dec-04 00:31N 60°01' E 026°40'510.2
2017-Dec-04 00:00N 60°01' E 026°50'510.2
2017-Dec-03 23:30N 59°59' E 026°60'5 9.4
2017-Dec-03 23:00N 60°01' E 027°09'5 9.6
2017-Dec-03 22:30N 60°04' E 027°17'5 9.4
2017-Dec-03 22:00N 60°06' E 027°25'5 9.1
2017-Dec-03 21:30N 60°09' E 027°33'4 9.0
2017-Dec-03 21:00N 60°11' E 027°41'4 8.6
2017-Dec-03 20:30N 60°12' E 027°49'5 9.8
2017-Dec-03 20:00N 60°11' E 027°58'510.1
2017-Dec-03 19:31N 60°09' E 028°08'510.2
2017-Dec-03 19:00N 60°08' E 028°18'611.1
2017-Dec-03 18:30N 60°04' E 028°27'510.5
2017-Dec-03 18:00N 60°02' E 028°36'510.8
2017-Dec-03 17:30N 59°57' E 028°33'4 7.7
2017-Dec-03 17:01N 59°53' E 028°30'611.0
2017-Dec-03 16:30N 59°48' E 028°25'4 8.4
2017-Dec-03 16:00N 59°44' E 028°25'1 2.0
2017-Dec-03 15:30N 59°43' E 028°26'0 0.0
2017-Dec-03 14:53N 59°43' E 028°26'0 0.0
2017-Dec-03 14:23N 59°43' E 028°26'0 0.0
2017-Dec-03 13:53N 59°43' E 028°26'0 0.0
2017-Dec-03 13:26N 59°43' E 028°26'0 0.0
2017-Dec-03 12:56N 59°43' E 028°26'0 0.0
2017-Dec-03 12:26N 59°43' E 028°26'0 0.0
2017-Dec-03 11:56N 59°43' E 028°26'0 0.0
2017-Dec-03 11:23N 59°43' E 028°26'0 0.0
2017-Dec-03 10:56N 59°43' E 028°26'0 0.0
2017-Dec-03 10:29N 59°43' E 028°26'0 0.0
2017-Dec-03 09:59N 59°43' E 028°26'0 0.0
2017-Dec-03 09:29N 59°43' E 028°26'0 0.0
2017-Dec-03 08:59N 59°43' E 028°26'0 0.0
2017-Dec-03 08:29N 59°43' E 028°26'0 0.0
2017-Dec-03 07:56N 59°43' E 028°26'0 0.0
2017-Dec-03 07:29N 59°43' E 028°26'0 0.0
2017-Dec-03 06:59N 59°43' E 028°26'0 0.0
2017-Dec-03 06:29N 59°43' E 028°26'0 0.0
2017-Dec-03 05:59N 59°43' E 028°26'0 0.0
2017-Dec-03 05:29N 59°43' E 028°26'0 0.0
2017-Dec-03 04:59N 59°43' E 028°26'0 0.0
2017-Dec-03 04:29N 59°43' E 028°26'0 0.0
2017-Dec-03 03:59N 59°43' E 028°26'0 0.0
2017-Dec-03 03:20N 59°43' E 028°26'0 0.0
2017-Dec-03 02:50N 59°43' E 028°26'0 0.0
2017-Dec-03 02:20N 59°43' E 028°26'0 0.0
2017-Dec-03 01:53N 59°43' E 028°26'0 0.0
2017-Dec-03 01:23N 59°43' E 028°26'0 0.0
2017-Dec-03 00:53N 59°43' E 028°26'0 0.0
2017-Dec-03 00:23N 59°43' E 028°26'0 0.0
2017-Dec-02 23:53N 59°43' E 028°26'0 0.0
2017-Dec-02 23:26N 59°43' E 028°26'0 0.0
2017-Dec-02 22:56N 59°43' E 028°26'0 0.0
2017-Dec-02 22:26N 59°43' E 028°26'0 0.0
2017-Dec-02 21:56N 59°43' E 028°26'0 0.0
2017-Dec-02 21:26N 59°43' E 028°26'0 0.0
2017-Dec-02 20:56N 59°43' E 028°26'0 0.0
2017-Dec-02 20:29N 59°43' E 028°26'0 0.0
2017-Dec-02 19:59N 59°43' E 028°26'0 0.0
2017-Dec-02 19:29N 59°43' E 028°26'0 0.0
2017-Dec-02 18:59N 59°43' E 028°26'0 0.0
2017-Dec-02 18:29N 59°43' E 028°26'0 0.0
2017-Dec-02 17:59N 59°43' E 028°26'0 0.0
2017-Dec-02 17:29N 59°43' E 028°26'0 0.0
2017-Dec-02 16:59N 59°43' E 028°26'0 0.0
2017-Dec-02 16:29N 59°43' E 028°26'0 0.0
2017-Dec-02 15:59N 59°43' E 028°26'0 0.0
2017-Dec-02 15:29N 59°43' E 028°26'0 0.0
2017-Dec-02 14:59N 59°43' E 028°26'0 0.0
2017-Dec-02 14:29N 59°43' E 028°26'0 0.0
2017-Dec-02 13:59N 59°43' E 028°26'0 0.0
2017-Dec-02 13:20N 59°43' E 028°26'0 0.0
2017-Dec-02 12:50N 59°43' E 028°26'0 0.0
2017-Dec-02 12:20N 59°43' E 028°26'0 0.0
2017-Dec-02 11:53N 59°43' E 028°26'0 0.0
2017-Dec-02 11:23N 59°43' E 028°26'0 0.0
2017-Dec-02 10:53N 59°43' E 028°26'0 0.0
2017-Dec-02 10:23N 59°43' E 028°26'0 0.0
2017-Dec-02 09:53N 59°43' E 028°26'0 0.0
2017-Dec-02 09:23N 59°43' E 028°26'0 0.0
2017-Dec-02 08:56N 59°43' E 028°26'0 0.0
2017-Dec-02 08:26N 59°43' E 028°26'0 0.0
2017-Dec-02 07:56N 59°43' E 028°26'0 0.0
2017-Dec-02 07:26N 59°43' E 028°26'0 0.0
2017-Dec-02 06:56N 59°43' E 028°26'0 0.0
2017-Dec-02 06:26N 59°43' E 028°26'0 0.0
2017-Dec-02 05:59N 59°43' E 028°26'0 0.0
2017-Dec-02 05:29N 59°43' E 028°26'0 0.0
2017-Dec-02 04:59N 59°43' E 028°26'0 0.0
2017-Dec-02 04:29N 59°43' E 028°26'0 0.0
2017-Dec-02 03:59N 59°43' E 028°26'0 0.0
2017-Dec-02 03:29N 59°43' E 028°26'0 0.0
2017-Dec-02 02:59N 59°43' E 028°26'0 0.0
2017-Dec-02 02:17N 59°43' E 028°26'0 0.0
2017-Dec-02 01:59N 59°43' E 028°26'0 0.0
2017-Dec-02 01:29N 59°43' E 028°26'0 0.0
2017-Dec-02 00:59N 59°43' E 028°26'0 0.0
2017-Dec-02 00:29N 59°43' E 028°26'0 0.0
2017-Dec-01 23:59N 59°43' E 028°26'0 0.0
2017-Dec-01 23:20N 59°43' E 028°26'0 0.0
2017-Dec-01 22:50N 59°43' E 028°26'0 0.0
2017-Dec-01 22:23N 59°43' E 028°26'0 0.0
2017-Dec-01 21:50N 59°43' E 028°26'0 0.0
2017-Dec-01 21:23N 59°43' E 028°26'0 0.0
2017-Dec-01 20:53N 59°43' E 028°26'0 0.0
2017-Dec-01 20:23N 59°43' E 028°26'0 0.0
2017-Dec-01 19:50N 59°43' E 028°26'0 0.0
2017-Dec-01 19:26N 59°43' E 028°26'0 0.0
2017-Dec-01 18:56N 59°43' E 028°26'0 0.0
2017-Dec-01 18:26N 59°43' E 028°26'0 0.0
2017-Dec-01 17:41N 59°43' E 028°26'0 0.0
2017-Dec-01 17:26N 59°43' E 028°26'0 0.0
2017-Dec-01 16:56N 59°43' E 028°26'0 0.0
2017-Dec-01 16:29N 59°43' E 028°26'0 0.0
2017-Dec-01 15:59N 59°43' E 028°26'0 0.0
2017-Dec-01 15:14N 59°43' E 028°26'0 0.0
2017-Dec-01 14:59N 59°43' E 028°26'0 0.0
2017-Dec-01 14:29N 59°43' E 028°26'0 0.0
2017-Dec-01 13:59N 59°43' E 028°26'  
Track history (hours):
 
Tides and Currents Weather Stations Pressure Air Temp Water Temp Dewpoint Dewpoint Depression Visibility Wind Speed Wind Dir Waves Ship Positions

Torm Alexandra

Last reported at 2017-Dec-11 13:45 UTC. Time now 2017-Dec-14 15:22 UTC.
Position N 51°27' E 002°37'.

Length 183 m; draft 10.8 m.

Type: Ship. MMSI: 564458000.

Date/timePositionNaut miles runAvg speedWind from/ knotsBaromVisibWave heightAir tempDewpointWater temp
2017-Dec-11 13:45N 51°27' E 002°37'1 4.2
2017-Dec-11 13:29N 51°27' E 002°36'2 1.7
2017-Dec-11 12:28N 51°25' E 002°35'0 0.0
2017-Dec-11 10:52N 51°25' E 002°35'0 0.0
2017-Dec-11 10:28N 51°25' E 002°35'0 0.0
2017-Dec-11 09:52N 51°25' E 002°35'0 0.0
2017-Dec-11 09:28N 51°25' E 002°35'0 0.0
2017-Dec-11 05:34N 51°25' E 002°35'0 0.1
2017-Dec-11 05:28N 51°25' E 002°35'0 0.1
2017-Dec-11 04:58N 51°25' E 002°35'0 0.1
2017-Dec-11 04:28N 51°25' E 002°36'0 0.0
2017-Dec-11 03:55N 51°25' E 002°36'0 0.0
2017-Dec-11 03:22N 51°25' E 002°36'0 0.0
2017-Dec-11 02:55N 51°25' E 002°36'0 0.0
2017-Dec-11 02:13N 51°25' E 002°36'0 0.0
2017-Dec-10 23:58N 51°25' E 002°36'0 0.1
2017-Dec-10 23:07N 51°25' E 002°36'0 0.1
2017-Dec-10 22:58N 51°25' E 002°36'0 0.2
2017-Dec-10 22:25N 51°25' E 002°36'0 0.1
2017-Dec-10 21:58N 51°25' E 002°36'0 0.1
2017-Dec-10 21:28N 51°25' E 002°36'0 0.0
2017-Dec-10 20:58N 51°25' E 002°36'0 0.0
2017-Dec-10 20:28N 51°25' E 002°36'0 0.0
2017-Dec-10 19:58N 51°25' E 002°36'0 0.0
2017-Dec-10 19:28N 51°25' E 002°36'0 0.0
2017-Dec-10 18:58N 51°25' E 002°36'0 0.0
2017-Dec-10 18:25N 51°25' E 002°36'0 0.0
2017-Dec-10 17:58N 51°25' E 002°36'0 0.0
2017-Dec-10 17:28N 51°25' E 002°36'0 0.0
2017-Dec-10 16:58N 51°25' E 002°36'0 0.0
2017-Dec-10 16:28N 51°25' E 002°36'0 0.0
2017-Dec-10 15:58N 51°25' E 002°36'0 0.0
2017-Dec-10 15:28N 51°25' E 002°36'0 0.0
2017-Dec-10 14:55N 51°25' E 002°36'0 0.0
2017-Dec-10 14:28N 51°25' E 002°36'0 0.0
2017-Dec-10 13:55N 51°25' E 002°36'0 0.0
2017-Dec-10 13:25N 51°25' E 002°36'0 0.0
2017-Dec-10 12:58N 51°25' E 002°36'0 0.0
2017-Dec-10 12:28N 51°25' E 002°36'0 0.1
2017-Dec-10 11:58N 51°25' E 002°36'0 0.4
2017-Dec-10 11:28N 51°25' E 002°36'0 0.1
2017-Dec-10 10:49N 51°25' E 002°35'0 0.0
2017-Dec-10 10:28N 51°25' E 002°35'0 0.1
2017-Dec-10 09:58N 51°25' E 002°35'0 0.0
2017-Dec-10 09:28N 51°25' E 002°35'0 0.1
2017-Dec-10 08:58N 51°25' E 002°36'0 0.1
2017-Dec-10 08:25N 51°25' E 002°36'0 0.1
2017-Dec-10 07:58N 51°25' E 002°36'0 0.1
2017-Dec-10 07:28N 51°25' E 002°36'0 0.0
2017-Dec-10 06:58N 51°25' E 002°36'0 0.0
2017-Dec-10 06:25N 51°25' E 002°36'0 0.0
2017-Dec-10 05:58N 51°25' E 002°36'0 0.0
2017-Dec-10 05:28N 51°25' E 002°36'0 0.0
2017-Dec-10 04:58N 51°25' E 002°36'0 0.0
2017-Dec-10 04:28N 51°25' E 002°36'0 0.0
2017-Dec-10 03:58N 51°25' E 002°36'0 0.4
2017-Dec-10 03:28N 51°25' E 002°36'0 0.1
2017-Dec-10 02:55N 51°25' E 002°36'0 0.0
2017-Dec-10 02:28N 51°25' E 002°36'0 0.1
2017-Dec-10 01:58N 51°25' E 002°36'0 0.1
2017-Dec-10 01:28N 51°25' E 002°35'0 0.1
2017-Dec-10 00:46N 51°25' E 002°36'7 5.2
2017-Dec-09 23:30N 51°32' E 002°36'  
2017-Dec-07 12:36N 57°48' E 010°22'1 7.3
2017-Dec-07 12:27N 57°48' E 010°24'4 7.8
2017-Dec-07 12:00N 57°48' E 010°30'4 7.2
2017-Dec-07 11:30N 57°49' E 010°37'4 7.5
2017-Dec-07 11:01N 57°49' E 010°44'5 9.8
2017-Dec-07 10:30N 57°44' E 010°48'5 7.1
2017-Dec-07 09:51N 57°40' E 010°53'410.6
2017-Dec-07 09:30N 57°39' E 010°59'510.5
2017-Dec-07 09:00N 57°37' E 011°08'510.8
2017-Dec-07 08:31N 57°33' E 011°16'510.9
2017-Dec-07 08:01N 57°30' E 011°23'510.8
2017-Dec-07 07:31N 57°25' E 011°28'611.3
2017-Dec-07 07:01N 57°20' E 011°32'611.1
2017-Dec-07 06:31N 57°14' E 011°36'611.3
2017-Dec-07 06:01N 57°09' E 011°39'611.5
2017-Dec-07 05:28N 57°03' E 011°43'5110.8
2017-Dec-07 00:42N 56°13' E 011°20'311.3
2017-Dec-07 00:27N 56°11' E 011°17'711.3
2017-Dec-06 23:52N 56°06' E 011°10'  
2017-Dec-04 09:45N 59°38' E 023°17'311.2
2017-Dec-04 09:29N 59°39' E 023°23'711.3
2017-Dec-04 08:53N 59°40' E 023°36'411.3
2017-Dec-04 08:31N 59°41' E 023°44'611.3
2017-Dec-04 08:01N 59°43' E 023°55'611.3
2017-Dec-04 07:31N 59°44' E 024°05'711.3
2017-Dec-04 06:56N 59°46' E 024°18'511.2
2017-Dec-04 06:30N 59°47' E 024°27'611.3
2017-Dec-04 06:01N 59°49' E 024°38'611.8
2017-Dec-04 05:31N 59°50' E 024°49'611.6
2017-Dec-04 05:00N 59°51' E 025°01'611.5
2017-Dec-04 04:31N 59°52' E 025°12'611.6
2017-Dec-04 04:00N 59°53' E 025°24'611.6
2017-Dec-04 03:29N 59°54' E 025°36'1911.3
2017-Dec-04 01:49N 59°59' E 026°12'311.3
2017-Dec-04 01:30N 59°60' E 026°19'611.1
2017-Dec-04 01:00N 60°01' E 026°29'510.5
2017-Dec-04 00:31N 60°01' E 026°40'510.2
2017-Dec-04 00:00N 60°01' E 026°50'510.2
2017-Dec-03 23:30N 59°59' E 026°60'5 9.4
2017-Dec-03 23:00N 60°01' E 027°09'5 9.6
2017-Dec-03 22:30N 60°04' E 027°17'5 9.4
2017-Dec-03 22:00N 60°06' E 027°25'5 9.1
2017-Dec-03 21:30N 60°09' E 027°33'4 9.0
2017-Dec-03 21:00N 60°11' E 027°41'4 8.6
2017-Dec-03 20:30N 60°12' E 027°49'5 9.8
2017-Dec-03 20:00N 60°11' E 027°58'510.1
2017-Dec-03 19:31N 60°09' E 028°08'510.2
2017-Dec-03 19:00N 60°08' E 028°18'611.1
2017-Dec-03 18:30N 60°04' E 028°27'510.5
2017-Dec-03 18:00N 60°02' E 028°36'510.8
2017-Dec-03 17:30N 59°57' E 028°33'4 7.7
2017-Dec-03 17:01N 59°53' E 028°30'611.0
2017-Dec-03 16:30N 59°48' E 028°25'4 8.4
2017-Dec-03 16:00N 59°44' E 028°25'1 2.0
2017-Dec-03 15:30N 59°43' E 028°26'0 0.0
2017-Dec-03 14:53N 59°43' E 028°26'0 0.0
2017-Dec-03 14:23N 59°43' E 028°26'0 0.0
2017-Dec-03 13:53N 59°43' E 028°26'0 0.0
2017-Dec-03 13:26N 59°43' E 028°26'0 0.0
2017-Dec-03 12:56N 59°43' E 028°26'0 0.0
2017-Dec-03 12:26N 59°43' E 028°26'0 0.0
2017-Dec-03 11:56N 59°43' E 028°26'0 0.0
2017-Dec-03 11:23N 59°43' E 028°26'0 0.0
2017-Dec-03 10:56N 59°43' E 028°26'0 0.0
2017-Dec-03 10:29N 59°43' E 028°26'0 0.0
2017-Dec-03 09:59N 59°43' E 028°26'0 0.0
2017-Dec-03 09:29N 59°43' E 028°26'0 0.0
2017-Dec-03 08:59N 59°43' E 028°26'0 0.0
2017-Dec-03 08:29N 59°43' E 028°26'0 0.0
2017-Dec-03 07:56N 59°43' E 028°26'0 0.0
2017-Dec-03 07:29N 59°43' E 028°26'0 0.0
2017-Dec-03 06:59N 59°43' E 028°26'0 0.0
2017-Dec-03 06:29N 59°43' E 028°26'0 0.0
2017-Dec-03 05:59N 59°43' E 028°26'0 0.0
2017-Dec-03 05:29N 59°43' E 028°26'0 0.0
2017-Dec-03 04:59N 59°43' E 028°26'0 0.0
2017-Dec-03 04:29N 59°43' E 028°26'0 0.0
2017-Dec-03 03:59N 59°43' E 028°26'0 0.0
2017-Dec-03 03:20N 59°43' E 028°26'0 0.0
2017-Dec-03 02:50N 59°43' E 028°26'0 0.0
2017-Dec-03 02:20N 59°43' E 028°26'0 0.0
2017-Dec-03 01:53N 59°43' E 028°26'0 0.0
2017-Dec-03 01:23N 59°43' E 028°26'0 0.0
2017-Dec-03 00:53N 59°43' E 028°26'0 0.0
2017-Dec-03 00:23N 59°43' E 028°26'0 0.0
2017-Dec-02 23:53N 59°43' E 028°26'0 0.0
2017-Dec-02 23:26N 59°43' E 028°26'0 0.0
2017-Dec-02 22:56N 59°43' E 028°26'0 0.0
2017-Dec-02 22:26N 59°43' E 028°26'0 0.0
2017-Dec-02 21:56N 59°43' E 028°26'0 0.0
2017-Dec-02 21:26N 59°43' E 028°26'0 0.0
2017-Dec-02 20:56N 59°43' E 028°26'0 0.0
2017-Dec-02 20:29N 59°43' E 028°26'0 0.0
2017-Dec-02 19:59N 59°43' E 028°26'0 0.0
2017-Dec-02 19:29N 59°43' E 028°26'0 0.0
2017-Dec-02 18:59N 59°43' E 028°26'0 0.0
2017-Dec-02 18:29N 59°43' E 028°26'0 0.0
2017-Dec-02 17:59N 59°43' E 028°26'0 0.0
2017-Dec-02 17:29N 59°43' E 028°26'0 0.0
2017-Dec-02 16:59N 59°43' E 028°26'0 0.0
2017-Dec-02 16:29N 59°43' E 028°26'0 0.0
2017-Dec-02 15:59N 59°43' E 028°26'0 0.0
2017-Dec-02 15:29N 59°43' E 028°26'0 0.0
2017-Dec-02 14:59N 59°43' E 028°26'0 0.0
2017-Dec-02 14:29N 59°43' E 028°26'0 0.0
2017-Dec-02 13:59N 59°43' E 028°26'0 0.0
2017-Dec-02 13:20N 59°43' E 028°26'0 0.0
2017-Dec-02 12:50N 59°43' E 028°26'0 0.0
2017-Dec-02 12:20N 59°43' E 028°26'0 0.0
2017-Dec-02 11:53N 59°43' E 028°26'0 0.0
2017-Dec-02 11:23N 59°43' E 028°26'0 0.0
2017-Dec-02 10:53N 59°43' E 028°26'0 0.0
2017-Dec-02 10:23N 59°43' E 028°26'0 0.0
2017-Dec-02 09:53N 59°43' E 028°26'0 0.0
2017-Dec-02 09:23N 59°43' E 028°26'0 0.0
2017-Dec-02 08:56N 59°43' E 028°26'0 0.0
2017-Dec-02 08:26N 59°43' E 028°26'0 0.0
2017-Dec-02 07:56N 59°43' E 028°26'0 0.0
2017-Dec-02 07:26N 59°43' E 028°26'0 0.0
2017-Dec-02 06:56N 59°43' E 028°26'0 0.0
2017-Dec-02 06:26N 59°43' E 028°26'0 0.0
2017-Dec-02 05:59N 59°43' E 028°26'0 0.0
2017-Dec-02 05:29N 59°43' E 028°26'0 0.0
2017-Dec-02 04:59N 59°43' E 028°26'0 0.0
2017-Dec-02 04:29N 59°43' E 028°26'0 0.0
2017-Dec-02 03:59N 59°43' E 028°26'0 0.0
2017-Dec-02 03:29N 59°43' E 028°26'0 0.0
2017-Dec-02 02:59N 59°43' E 028°26'0 0.0
2017-Dec-02 02:17N 59°43' E 028°26'0 0.0
2017-Dec-02 01:59N 59°43' E 028°26'0 0.0
2017-Dec-02 01:29N 59°43' E 028°26'0 0.0
2017-Dec-02 00:59N 59°43' E 028°26'0 0.0
2017-Dec-02 00:29N 59°43' E 028°26'0 0.0
2017-Dec-01 23:59N 59°43' E 028°26'0 0.0
2017-Dec-01 23:20N 59°43' E 028°26'0 0.0
2017-Dec-01 22:50N 59°43' E 028°26'0 0.0
2017-Dec-01 22:23N 59°43' E 028°26'0 0.0
2017-Dec-01 21:50N 59°43' E 028°26'0 0.0
2017-Dec-01 21:23N 59°43' E 028°26'0 0.0
2017-Dec-01 20:53N 59°43' E 028°26'0 0.0
2017-Dec-01 20:23N 59°43' E 028°26'0 0.0
2017-Dec-01 19:50N 59°43' E 028°26'0 0.0
2017-Dec-01 19:26N 59°43' E 028°26'0 0.0
2017-Dec-01 18:56N 59°43' E 028°26'0 0.0
2017-Dec-01 18:26N 59°43' E 028°26'0 0.0
2017-Dec-01 17:41N 59°43' E 028°26'0 0.0
2017-Dec-01 17:26N 59°43' E 028°26'0 0.0
2017-Dec-01 16:56N 59°43' E 028°26'0 0.0
2017-Dec-01 16:29N 59°43' E 028°26'0 0.0
2017-Dec-01 15:59N 59°43' E 028°26'0 0.0
2017-Dec-01 15:14N 59°43' E 028°26'0 0.0
2017-Dec-01 14:59N 59°43' E 028°26'0 0.0
2017-Dec-01 14:29N 59°43' E 028°26'0 0.0
2017-Dec-01 13:59N 59°43' E 028°26'  

Dump ship's entire track history